Time;durP1;ratioP1;P1;durP2;ratioP2;P2;SDS_P1;SDS_P2;PMS_P1;PMS_P2;Temp;Humidity;BMP_temperature;BMP_pressure;BME280_temperature;BME280_humidity;BME280_pressure;Samples;Min_cycle;Max_cycle;Signal;HPM_P1;HPM_P2
2022/11/13 01:08:06;;;;;;;15.02;7.90;;;;;;;;;;4743865;30;20050;-85
2022/11/13 01:11:35;;;;;;;;;;;;;;;;;;4720960;30;20055;-85
2022/11/13 01:15:53;;;;;;;15.35;7.78;;;;;;;;;;4741352;30;19976;-84
2022/11/13 01:20:44;;;;;;;15.80;7.63;;;;;;;;;;4742421;30;20105;-83
2022/11/13 01:25:11;;;;;;;15.65;8.52;;;;;;;;;;4724039;30;20056;-85
2022/11/13 01:30:05;;;;;;;14.02;7.22;;;;;;;;;;4606536;31;20083;-85
2022/11/13 01:33:55;;;;;;;17.70;8.10;;;;;;;;;;4608460;30;20063;-85
2022/11/13 01:37:56;;;;;;;16.20;8.15;;;;;;;;;;4674663;30;20062;-87
2022/11/13 01:42:07;;;;;;;16.05;7.32;;;;;;;;;;4674663;30;20085;-86
2022/11/13 01:46:20;;;;;;;15.65;8.05;;;;;;;;;;4672247;30;20102;-88
2022/11/13 01:50:43;;;;;;;16.50;8.50;;;;;;;;;;4664973;30;20116;-87
2022/11/13 01:55:09;;;;;;;16.33;7.47;;;;;;;;;;4672849;30;20104;-84
2022/11/13 01:59:16;;;;;;;14.82;8.05;;;;;;;;;;4674226;30;20955;-87
2022/11/13 02:03:29;;;;;;;17.52;7.85;;;;;;;;;;4698685;30;20057;-85
2022/11/13 02:07:39;;;;;;;18.52;8.75;;;;;;;;;;4666171;30;20057;-84
2022/11/13 02:11:33;;;;;;;17.38;8.60;;;;;;;;;;4605721;31;20534;-85
2022/11/13 02:21:07;;;;;;;15.95;8.43;;;;;;;;;;4636741;30;20048;-83
2022/11/13 02:25:51;;;;;;;17.10;7.82;;;;;;;;;;4630684;30;20123;-84
2022/11/13 02:29:50;;;;;;;18.05;8.52;;;;;;;;;;4653320;30;20062;-84
2022/11/13 02:33:47;;;;;;;16.88;8.60;;;;;;;;;;4649569;30;20129;-86
2022/11/13 02:37:33;;;;;;;15.77;7.70;;;;;;;;;;4648605;30;20207;-85
2022/11/13 02:41:43;;;;;;;19.50;8.50;;;;;;;;;;4603510;31;20055;-86
2022/11/13 02:45:24;;;;;;;22.67;8.65;;;;;;;;;;4619091;31;20138;-84
2022/11/13 02:49:22;;;;;;;20.10;8.02;;;;;;;;;;4616484;30;20118;-84
2022/11/13 02:52:54;;;;;;;17.50;9.05;;;;;;;;;;4599272;31;20072;-87
2022/11/13 02:57:12;;;;;;;17.35;8.82;;;;;;;;;;4609281;31;20063;-88
2022/11/13 03:01:44;;;;;;;18.27;7.85;;;;;;;;;;4607350;31;20052;-87
2022/11/13 03:05:17;;;;;;;15.70;8.15;;;;;;;;;;4642417;30;20059;-85
2022/11/13 03:09:01;;;;;;;15.65;8.23;;;;;;;;;;4641992;30;20075;-84
2022/11/13 03:13:07;;;;;;;17.65;8.27;;;;;;;;;;4626239;31;20513;-86
2022/11/13 03:17:19;;;;;;;14.98;7.80;;;;;;;;;;4624865;30;20063;-88
2022/11/13 03:21:56;;;;;;;17.00;8.60;;;;;;;;;;4615517;30;20601;-83
2022/11/13 03:26:06;;;;;;;16.88;8.90;;;;;;;;;;4665718;30;20077;-85
2022/11/13 03:30:25;;;;;;;16.52;7.82;;;;;;;;;;4667523;30;20074;-87
2022/11/13 03:34:31;;;;;;;24.67;10.30;;;;;;;;;;4667097;30;20059;-85
2022/11/13 03:38:39;;;;;;;21.90;10.05;;;;;;;;;;4629856;30;20138;-85
2022/11/13 03:42:38;;;;;;;22.67;11.13;;;;;;;;;;4626120;30;20063;-85
2022/11/13 03:46:13;;;;;;;22.98;10.60;;;;;;;;;;4639869;30;20174;-84
2022/11/13 03:50:06;;;;;;;21.35;10.40;;;;;;;;;;4621336;30;20091;-85
2022/11/13 03:54:21;;;;;;;21.50;9.43;;;;;;;;;;4625982;30;20060;-85
2022/11/13 03:58:45;;;;;;;22.08;10.70;;;;;;;;;;4636533;30;20406;-88
2022/11/13 04:02:53;;;;;;;21.63;9.88;;;;;;;;;;4675601;30;20057;-85
2022/11/13 04:07:19;;;;;;;23.77;9.32;;;;;;;;;;4586463;31;20059;-87
2022/11/13 04:11:50;;;;;;;22.48;9.55;;;;;;;;;;4622176;30;20446;-86
2022/11/13 04:16:16;;;;;;;22.90;10.95;;;;;;;;;;4558329;31;20464;-87
2022/11/13 04:20:47;;;;;;;22.00;9.15;;;;;;;;;;4558203;31;20524;-88
2022/11/13 04:25:08;;;;;;;22.40;9.93;;;;;;;;;;4558784;31;20057;-84
2022/11/13 04:28:55;;;;;;;22.00;8.93;;;;;;;;;;4559688;31;20057;-88
2022/11/13 04:33:00;;;;;;;20.63;9.13;;;;;;;;;;4577298;31;20519;-84
2022/11/13 04:37:03;;;;;;;22.13;10.23;;;;;;;;;;4606657;30;20583;-88
2022/11/13 04:45:37;;;;;;;21.05;8.82;;;;;;;;;;4703470;30;20061;-86
2022/11/13 04:50:01;;;;;;;21.02;9.55;;;;;;;;;;4709567;30;20604;-86
2022/11/13 04:54:09;;;;;;;19.50;9.00;;;;;;;;;;4691893;30;20672;-85
2022/11/13 04:57:54;;;;;;;19.25;9.63;;;;;;;;;;4672070;30;20515;-84
2022/11/13 05:00:59;;;;;;;22.88;8.80;;;;;;;;;;4669961;30;20065;-84
2022/11/13 05:04:47;;;;;;;17.27;7.93;;;;;;;;;;4667460;30;20051;-84
2022/11/13 05:09:19;;;;;;;19.13;8.82;;;;;;;;;;4643852;30;20054;-86
2022/11/13 05:22:45;;;;;;;19.52;9.32;;;;;;;;;;4615301;31;20112;-85
2022/11/13 05:31:50;;;;;;;20.60;9.10;;;;;;;;;;4557086;31;20070;-83
2022/11/13 05:35:54;;;;;;;20.38;9.50;;;;;;;;;;4576102;31;20067;-87
2022/11/13 05:39:51;;;;;;;21.98;10.40;;;;;;;;;;4599192;31;20071;-88
2022/11/13 05:44:01;;;;;;;20.73;9.27;;;;;;;;;;4573259;31;20283;-84
2022/11/13 05:48:17;;;;;;;20.77;8.95;;;;;;;;;;4598753;31;20453;-83
2022/11/13 05:52:27;;;;;;;23.05;10.57;;;;;;;;;;4624198;30;20067;-85
2022/11/13 05:56:47;;;;;;;23.23;9.35;;;;;;;;;;4606916;31;20059;-87
2022/11/13 06:01:11;;;;;;;23.25;9.10;;;;;;;;;;4620618;30;20584;-84
2022/11/13 06:32:16;;;;;;;23.83;10.50;;;;;;;;;;4653570;30;20061;-85
2022/11/13 06:37:01;;;;;;;22.13;9.43;;;;;;;;;;4617272;30;20137;-84
2022/11/13 06:41:39;;;;;;;26.13;10.43;;;;;;;;;;4591062;31;20242;-85
2022/11/13 06:46:08;;;;;;;24.40;10.93;;;;;;;;;;4624559;30;20047;-88
2022/11/13 06:55:18;;;;;;;23.02;10.32;;;;;;;;;;4577054;31;20527;-84
2022/11/13 06:58:20;;;;;;;24.77;10.10;;;;;;;;;;4574386;31;20084;-83
2022/11/13 07:02:05;;;;;;;21.33;9.63;;;;;;;;;;4575525;31;20084;-87
2022/11/13 07:06:15;;;;;;;25.88;10.82;;;;;;;;;;4579910;31;20068;-87
2022/11/13 07:09:43;;;;;;;28.20;10.07;;;;;;;;;;4621256;30;20059;-83
2022/11/13 07:18:42;;;;;;;26.50;10.32;;;;;;;;;;4603527;31;20162;-86
2022/11/13 07:23:22;;;;;;;25.60;10.48;;;;;;;;;;4626541;30;20727;-87
2022/11/13 07:36:58;;;;;;;26.60;10.65;;;;;;;;;;4622454;30;20995;-85
2022/11/13 07:40:25;;;;;;;24.35;10.55;;;;;;;;;;4625224;31;20073;-84
2022/11/13 07:44:41;;;;;;;25.35;10.63;;;;;;;;;;4607607;30;20083;-87
2022/11/13 07:54:04;;;;;;;28.77;10.40;;;;;;;;;;4657446;30;20362;-85
2022/11/13 07:57:11;;;;;;;30.42;11.10;;;;;;;;;;4640063;30;20068;-87
2022/11/13 08:00:13;;;;;;;29.83;9.70;;;;;;;;;;4633491;30;20168;-84
2022/11/13 08:03:16;;;;;;;28.77;11.02;;;;;;;;;;4624009;30;20130;-84
2022/11/13 08:07:15;;;;;;;25.60;11.50;;;;;;;;;;4618064;30;20047;-87
2022/11/13 08:11:30;;;;;;;24.88;10.75;;;;;;;;;;4657815;30;20082;-83
2022/11/13 08:16:07;;;;;;;28.17;10.63;;;;;;;;;;4614877;30;20184;-83
2022/11/13 08:20:36;;;;;;;29.63;10.30;;;;;;;;;;4622883;30;20056;-83
2022/11/13 08:23:58;;;;;;;23.98;9.38;;;;;;;;;;4672483;30;20062;-86
2022/11/13 08:28:04;;;;;;;26.33;10.25;;;;;;;;;;4663092;30;20062;-83
2022/11/13 08:31:32;;;;;;;30.38;9.82;;;;;;;;;;4645210;30;20058;-86
2022/11/13 08:35:39;;;;;;;29.63;10.55;;;;;;;;;;4644276;30;20054;-83
2022/11/13 08:39:51;;;;;;;23.55;8.77;;;;;;;;;;4643944;30;20209;-83
2022/11/13 08:44:04;;;;;;;30.65;10.38;;;;;;;;;;4614829;31;20064;-85
2022/11/13 08:48:39;;;;;;;29.17;11.00;;;;;;;;;;4623059;30;20067;-82
2022/11/13 08:53:01;;;;;;;26.75;11.10;;;;;;;;;;4599578;31;20097;-87
2022/11/13 08:57:16;;;;;;;29.55;11.50;;;;;;;;;;4597492;31;20151;-84
2022/11/13 09:20:32;;;;;;;25.90;11.20;;;;;;;;;;4518787;31;20085;-84
2022/11/13 09:24:22;;;;;;;26.35;10.27;;;;;;;;;;4524259;31;20062;-88
2022/11/13 09:27:26;;;;;;;32.40;10.07;;;;;;;;;;4522784;31;20114;-87
2022/11/13 09:35:11;;;;;;;25.70;10.85;;;;;;;;;;4510328;31;20078;-85
2022/11/13 09:39:38;;;;;;;31.48;11.30;;;;;;;;;;4515451;31;20747;-83
2022/11/13 10:24:58;;;;;;;20.25;8.93;;;;;;;;;;4684460;30;20891;-87
2022/11/13 12:28:02;;;;;;;17.52;8.20;;;;;;;;;;4748355;30;20063;-86
2022/11/13 13:16:05;;;;;;;21.83;8.80;;;;;;;;;;4675822;30;20102;-87
